Big Indian, NY

9:28 PM EDT on April 27, 2015 (GMT -0400)
Big Indian | | Change Station
CLOSE
Current Station
Personal Weather Station
Location: Big Indian, NY
Elevation: 1315 ft
Nearby Weather Stations

Elev 1315 ft 42.09 °N, 74.45 °W | Updated 13 minutes ago

Overcast
Overcast
44.6 °F
Feels Like 45 °F
N
2.0
Wind Variable Wind from North
Gusts 11.0 mph

Today
High -- | Low -- °F
--% Chance of Precip.
Yesterday
High -- | Low -- °F
Precip. -- in
5:59 AM 7:52 PM
Waxing Gibbous, 69% visible
Pressure 29.78 in
Visibility 10.0 miles
Clouds Few 2800 ft
Scattered Clouds 7000 ft
Overcast 9000 ft
Windchill 45 °F
Dew Point 39 °F
Humidity 81%
Rainfall 0.00 in
Snow Depth Not available.
UV 0 out of 12
Pollen 8.30 out of 12
Air Quality Not available.
Flu Activity Widespread
METAR KMSV 280115Z AUTO 32012G21KT 10SM FEW028 SCT070 OVC090 07/02 A2978 RMK AO1

More Conditions Fewer Conditions

Pressure 29.78 in
Visibility 10.0 miles
Clouds Few 2800 ft
Scattered Clouds 7000 ft
Overcast 9000 ft
Windchill 45 °F
Dew Point 39 °F
Humidity 81%
Rainfall 0.00 in
Snow Depth Not available.
UV 0 out of 12
Pollen 8.30 out of 12
Air Quality Not available.
Flu Activity Widespread
METAR KMSV 280115Z AUTO 32012G21KT 10SM FEW028 SCT070 OVC090 07/02 A2978 RMK AO1

More Conditions Fewer Conditions

10-Day Weather Forecast

Almanac

Astronomy

Apr. 27, 2015 Rise Set
Actual Time
Civil Twilight
Nautical Twilight
Astronomical Twilight
Moon
Length of Visible Light
Length of Day
Tomorrow will be .
, % of the Moon is Illuminated

Today's Extremes

State Highs State Lows

Community

WunderPhotos

Upload Photos

1,817,508 photos uploaded!

WunderBlogs® & News

Nearby

Air Quality

  Air Quality AQ Index Pollutant
Not available.

Snow Depth

Station Depth Elevation

Earthquake Activity

City Distance Mag. Time & Date
Minimum magnitude displayed is 2.5.

Coastal Water Temperatures

Place Temperature

Stations

Nearby Weather Stations

Station Location Temp. Windchill Dew Point Humidity Wind Precip. Elev Updated Type